Αρχική σελίδα
METAR-TAF:

METAR-TAF

Αεροδρόμια :

Χαρτούμ, Σουδάν

γεωγραφικό πλάτος: 15-36N, γεωγραφικό μήκος: 032-33E, υψόμετρο: 382 μ

Παρών καιρός

Η αναφορά έγινε 20 λεπτά πριν, στις 03:30 UTC
Άνεμος 10 kt από Β
Θερμοκρασία 16°C
Υγρασία 15%
Πίεση 1015 hPa
Ορατότητα 10 χλμ και άνω
Δεν υπάρχουν νέφη με βάση κάτω από τα 1500 μ. και δεν υπάρχουν νέφη σωρειτομελανίτες.

METAR: HSSS 200330Z 36010KT CAVOK 16/M11 Q1015 NOSIG

Χρόνος: 06:50 (03:50 UTC)

Πρόγνωση Καιρού

Η αναφορά έγινε 4 ώρες και 50 λεπτά πριν, στις 23:00 UTC
Η πρόγνωση ισχύει από τις 20 στις 00 UTC έως τις 21 στις 06 UTC
Άνεμος 10 kt από Β με ριπές μέχρι 20 kt
Ορατότητα 10 χλμ και άνω
Δεν υπάρχουν νέφη με βάση κάτω από τα 1500 μ. και δεν υπάρχουν νέφη σωρειτομελανίτες.

TAF: HSSS 192300Z 2000/2106 36010G20KT CAVOK

Μετεωρολογικές αναφορές και προγνώσεις για περισσότερα από 4000 αεροδρόμια (δελτία METAR και TAF).

Οι διαθέσιμοι σταθμοί απεικονίζονται στο χάρτη με κίτρινες και κόκκινες κουκκίδες.

Μετακινήστε το ποντίκι πάνω από τις κουκκίδες για να δείτε το όνομα του σταθμού.

Στη συνέχεια, κάντε κλικ για να δείτε τις μετεωρολογικές αναφορές και τις προγνώσεις καιρού.

Για να αλλάξετε το χάρτη: κάντε κλικ στα πράσινα κουμπιά με τον μαύρο σταυρό για να ζουμάρετε, στο πράσινο κουμπί με την παύλα για να αφαιρέσετε το ζουμ ή στα πράσινα βέλη για να αντιπαραβάλλετε χάρτες.


METAR-TAF: